Time;durP1;ratioP1;P1;durP2;ratioP2;P2;SDS_P1;SDS_P2;PMS_P1;PMS_P2;Temp;Humidity;BMP_temperature;BMP_pressure;BME280_temperature;BME280_humidity;BME280_pressure;Samples;Min_cycle;Max_cycle;Signal;HPM_P1;HPM_P2
2023/03/25 00:01:12;;;;;;;16.85;7.75;;;;;;;12.02;54.75;98952.34;6087693;23;20059;-94
2023/03/25 00:03:40;;;;;;;16.08;7.40;;;;;;;11.99;55.46;98947.53;6088745;23;20004;-94
2023/03/25 00:06:06;;;;;;;14.02;6.05;;;;;;;11.97;55.06;98951.59;6113324;23;20084;-94
2023/03/25 00:08:32;;;;;;;6.93;4.53;;;;;;;11.95;54.52;98945.69;6114014;23;20002;-93
2023/03/25 00:10:59;;;;;;;6.72;4.00;;;;;;;11.96;53.46;98950.81;6111312;23;20005;-94
2023/03/25 00:13:25;;;;;;;5.22;3.95;;;;;;;11.86;53.97;98938.19;6111643;23;20024;-95
2023/03/25 00:15:52;;;;;;;9.20;4.47;;;;;;;11.94;54.34;98944.91;6085981;23;20007;-93
2023/03/25 00:18:21;;;;;;;7.18;4.38;;;;;;;11.90;54.76;98930.38;6112741;23;20412;-94
2023/03/25 00:20:53;;;;;;;4.43;3.13;;;;;;;11.94;53.69;98944.91;6112901;23;20005;-94
2023/03/25 00:23:19;;;;;;;5.55;3.78;;;;;;;11.87;53.85;98933.59;6111843;23;20004;-94
2023/03/25 00:25:44;;;;;;;8.70;3.85;;;;;;;11.83;53.65;98919.91;6088092;23;20084;-93
2023/03/25 00:28:10;;;;;;;5.30;3.63;;;;;;;11.94;53.48;98944.91;6111336;23;20471;-94
2023/03/25 00:30:40;;;;;;;6.75;4.60;;;;;;;11.90;53.75;98939.28;6111550;23;20088;-94
2023/03/25 00:33:05;;;;;;;6.78;4.00;;;;;;;11.91;53.79;98934.66;6106346;23;20022;-94
2023/03/25 00:35:31;;;;;;;6.30;3.60;;;;;;;11.82;54.14;98926.38;6104974;23;20009;-95
2023/03/25 00:38:00;;;;;;;6.93;3.70;;;;;;;11.81;53.95;98924.78;6105370;23;20456;-94
2023/03/25 00:40:29;;;;;;;6.30;3.83;;;;;;;11.80;53.99;98919.69;6107670;23;19997;-94
2023/03/25 00:42:55;;;;;;;6.05;3.80;;;;;;;11.81;54.11;98921.28;6107035;23;19998;-94
2023/03/25 00:45:21;;;;;;;6.68;4.50;;;;;;;11.72;54.14;98919.22;6106425;23;20010;-94
2023/03/25 00:47:46;;;;;;;7.78;3.83;;;;;;;11.75;53.79;98928.63;6081255;23;20077;-95
2023/03/25 00:50:12;;;;;;;8.07;3.97;;;;;;;11.75;53.40;98919.75;6105961;23;19998;-94
2023/03/25 00:52:38;;;;;;;5.70;3.60;;;;;;;11.69;53.46;98916.28;6082294;23;20013;-94
2023/03/25 00:55:04;;;;;;;6.30;4.32;;;;;;;11.79;53.33;98931.56;6106443;23;20006;-93
2023/03/25 00:57:29;;;;;;;5.30;3.42;;;;;;;11.76;53.23;98911.34;6129433;23;20010;-95
2023/03/25 00:59:55;;;;;;;15.15;6.57;;;;;;;11.76;54.66;98911.34;6106110;23;19997;-94
2023/03/25 01:02:21;;;;;;;14.65;5.55;;;;;;;11.73;55.01;98911.94;6106435;23;20001;-94
2023/03/25 01:04:48;;;;;;;18.13;8.82;;;;;;;11.59;55.97;98905.63;6082796;23;20032;-94
2023/03/25 01:07:16;;;;;;;19.50;10.38;;;;;;;11.52;56.75;98904.06;6106199;23;20400;-94
2023/03/25 01:09:45;;;;;;;11.35;6.97;;;;;;;11.45;56.49;98898.19;6130124;23;20085;-94
2023/03/25 01:12:10;;;;;;;6.28;4.00;;;;;;;11.48;54.91;98900.34;6106421;23;20009;-94
2023/03/25 01:14:36;;;;;;;12.68;5.40;;;;;;;11.55;54.80;98891.09;6105714;23;20002;-95
2023/03/25 01:17:01;;;;;;;13.05;7.47;;;;;;;11.46;56.69;98893.63;6104284;23;19998;-94
2023/03/25 01:19:27;;;;;;;16.85;7.32;;;;;;;11.35;56.95;98876.75;6105589;23;20006;-94
2023/03/25 01:21:52;;;;;;;12.77;7.63;;;;;;;11.36;57.51;98889.13;6082105;23;20001;-94
2023/03/25 01:24:20;;;;;;;15.48;8.23;;;;;;;11.16;57.95;98876.66;6105535;23;20005;-94
2023/03/25 01:26:45;;;;;;;17.90;8.80;;;;;;;11.15;57.95;98890.44;6081826;23;20004;-95
2023/03/25 01:29:16;;;;;;;13.32;7.47;;;;;;;11.12;57.98;98891.78;6105580;23;20029;-94
2023/03/25 01:31:42;;;;;;;13.48;8.60;;;;;;;10.98;58.55;98888.97;6106252;23;20018;-93
2023/03/25 01:34:08;;;;;;;14.77;7.20;;;;;;;10.82;59.03;98885.59;6104860;23;20364;-93
2023/03/25 01:36:34;;;;;;;11.63;6.95;;;;;;;10.85;58.68;98881.53;6105353;23;19998;-94
2023/03/25 01:39:01;;;;;;;13.25;7.30;;;;;;;10.80;58.89;98879.69;6105990;23;20009;-94
2023/03/25 01:41:27;;;;;;;13.10;8.32;;;;;;;10.69;59.31;98870.88;6081886;23;20025;-93
2023/03/25 01:44:02;;;;;;;13.35;7.72;;;;;;;10.75;59.71;98881.59;6081549;23;20449;-94
2023/03/25 01:46:27;;;;;;;15.50;8.73;;;;;;;10.70;59.06;98871.69;6154321;23;20448;-93
2023/03/25 01:48:52;;;;;;;13.75;7.75;;;;;;;10.59;60.12;98879.03;6104690;23;20005;-94
2023/03/25 01:51:23;;;;;;;13.43;7.78;;;;;;;10.52;60.15;98865.06;6106081;23;20037;-93
2023/03/25 01:53:50;;;;;;;14.07;8.02;;;;;;;10.52;60.02;98867.78;6105891;23;20002;-95
2023/03/25 01:56:18;;;;;;;14.05;8.25;;;;;;;10.51;60.26;98871.56;6106128;23;20009;-94
2023/03/25 01:58:43;;;;;;;16.25;7.05;;;;;;;10.41;60.87;98864.34;6104847;23;19998;-93
2023/03/25 02:01:12;;;;;;;14.50;7.57;;;;;;;10.25;61.02;98850.19;6105189;23;19998;-94
2023/03/25 02:03:45;;;;;;;11.20;6.28;;;;;;;10.18;61.45;98871.19;6082439;23;20338;-94
2023/03/25 02:06:16;;;;;;;11.65;6.13;;;;;;;10.09;61.70;98873.66;6084232;23;19998;-94
2023/03/25 02:08:42;;;;;;;8.38;5.13;;;;;;;9.86;61.53;98856.31;6105238;23;20369;-93
2023/03/25 02:11:08;;;;;;;8.90;5.40;;;;;;;9.73;61.91;98856.09;6080799;23;20010;-94
2023/03/25 02:13:35;;;;;;;12.05;5.40;;;;;;;9.69;61.97;98855.84;6104954;23;20006;-93
2023/03/25 02:16:12;;;;;;;11.27;5.30;;;;;;;9.63;62.50;98865.00;6080903;23;20028;-92
2023/03/25 02:18:43;;;;;;;11.15;5.88;;;;;;;9.49;62.22;98860.22;6130481;23;20105;-93
2023/03/25 02:21:49;;;;;;;9.20;5.05;;;;;;;9.45;62.37;98861.03;6104737;23;20057;-93
2023/03/25 02:24:52;;;;;;;11.52;5.53;;;;;;;9.28;63.02;98858.66;6075868;23;20012;-95
2023/03/25 02:27:40;;;;;;;9.30;4.70;;;;;;;9.26;63.26;98863.50;6099376;23;20016;-93
2023/03/25 02:30:19;;;;;;;12.15;5.32;;;;;;;9.08;63.46;98857.63;6154621;23;20002;-93
2023/03/25 02:32:53;;;;;;;10.68;4.57;;;;;;;9.06;63.92;98859.78;6106205;23;20054;-94
2023/03/25 02:35:46;;;;;;;7.07;4.90;;;;;;;8.99;64.25;98855.78;6154825;23;19986;-93
2023/03/25 02:38:30;;;;;;;7.53;5.00;;;;;;;8.99;64.24;98853.88;6129766;23;20518;-93
2023/03/25 02:41:13;;;;;;;7.38;5.20;;;;;;;8.98;63.81;98846.91;6154099;23;19998;-94
2023/03/25 02:43:43;;;;;;;8.05;4.70;;;;;;;8.82;64.33;98856.03;6130448;23;20057;-94
2023/03/25 02:46:11;;;;;;;7.30;4.65;;;;;;;8.83;64.46;98841.56;6104713;23;20044;-94
2023/03/25 02:48:41;;;;;;;9.48;5.45;;;;;;;8.79;64.39;98832.44;6105123;23;19998;-93
2023/03/25 02:51:11;;;;;;;10.95;5.95;;;;;;;8.80;64.98;98839.38;6105042;23;20013;-93
2023/03/25 02:53:36;;;;;;;7.57;5.43;;;;;;;8.73;64.90;98825.44;6105178;23;20076;-94
2023/03/25 02:56:05;;;;;;;7.72;5.03;;;;;;;8.66;65.33;98828.41;6081124;23;20001;-93
2023/03/25 02:58:30;;;;;;;6.25;4.45;;;;;;;8.57;64.84;98830.00;6104995;23;20437;-94
2023/03/25 03:00:59;;;;;;;8.85;4.90;;;;;;;8.47;65.92;98831.63;6080423;23;20001;-93
2023/03/25 03:03:25;;;;;;;7.18;5.13;;;;;;;8.35;65.82;98823.00;6081270;23;20078;-94
2023/03/25 03:05:52;;;;;;;7.72;4.93;;;;;;;8.45;65.44;98822.25;6105802;23;20013;-93
2023/03/25 03:08:20;;;;;;;10.30;5.30;;;;;;;8.45;65.84;98830.31;6105093;23;20010;-93
2023/03/25 03:10:45;;;;;;;11.55;5.20;;;;;;;8.42;66.00;98828.13;6153595;23;20041;-94
2023/03/25 03:13:17;;;;;;;8.57;4.78;;;;;;;8.42;65.87;98820.09;6152567;23;20010;-94
2023/03/25 03:16:08;;;;;;;10.10;4.97;;;;;;;8.45;66.16;98827.63;6154183;23;20006;-94
2023/03/25 03:19:14;;;;;;;10.40;5.05;;;;;;;8.40;66.14;98817.63;6132174;23;20145;-94
2023/03/25 03:21:46;;;;;;;8.88;4.93;;;;;;;8.34;66.46;98810.66;6108100;23;19998;-94
2023/03/25 03:24:23;;;;;;;;;;;;;;;8.37;66.34;98826.22;6084054;23;20501;-94
2023/03/25 03:27:15;;;;;;;5.70;4.55;;;;;;;8.26;66.66;98817.38;6130992;23;19905;-93
2023/03/25 03:30:16;;;;;;;7.45;4.28;;;;;;;8.29;66.86;98824.88;6106782;23;20029;-94
2023/03/25 03:33:02;;;;;;;6.10;4.80;;;;;;;8.12;67.14;98821.66;6110658;23;20360;-94
2023/03/25 03:36:00;;;;;;;13.25;5.40;;;;;;;8.08;67.32;98818.69;6136015;23;20055;-94
2023/03/25 03:38:28;;;;;;;6.10;4.80;;;;;;;8.09;67.37;98816.78;6134797;23;20001;-94
2023/03/25 03:40:55;;;;;;;6.40;4.55;;;;;;;7.97;67.44;98811.69;6112020;23;20002;-94
2023/03/25 03:43:34;;;;;;;11.45;5.13;;;;;;;7.86;67.43;98810.88;6111195;23;20002;-94
2023/03/25 03:46:01;;;;;;;7.70;4.93;;;;;;;7.88;67.49;98814.06;6112044;23;20428;-94
2023/03/25 03:48:30;;;;;;;5.50;4.32;;;;;;;7.89;67.82;98817.56;6112023;23;20440;-94
2023/03/25 03:51:00;;;;;;;9.32;5.15;;;;;;;7.92;67.75;98808.19;6112252;23;19986;-94
2023/03/25 03:53:28;;;;;;;9.10;5.00;;;;;;;7.88;67.44;98810.59;6111308;23;20029;-94
2023/03/25 03:56:02;;;;;;;8.20;4.57;;;;;;;7.79;67.68;98810.31;6136054;23;20404;-93
2023/03/25 03:58:33;;;;;;;9.48;5.00;;;;;;;7.74;68.31;98817.53;6111005;23;20009;-95
2023/03/25 04:01:12;;;;;;;7.15;4.70;;;;;;;7.73;67.80;98813.25;6135596;23;20001;-94
2023/03/25 04:03:52;;;;;;;8.45;4.97;;;;;;;7.68;68.04;98804.13;6111808;23;20136;-94
2023/03/25 04:06:40;;;;;;;9.75;5.03;;;;;;;7.76;67.97;98810.03;6111549;23;20012;-95
2023/03/25 04:09:26;;;;;;;7.30;5.03;;;;;;;7.72;68.37;98823.16;6137222;23;20021;-94
2023/03/25 04:12:08;;;;;;;9.32;5.25;;;;;;;7.71;68.40;98828.78;6134871;23;20092;-94
2023/03/25 04:14:34;;;;;;;;;;;;;;;7.66;68.62;98822.34;6136195;23;20425;-94
2023/03/25 04:17:02;;;;;;;10.20;5.10;;;;;;;7.51;68.89;98816.09;6135386;23;19919;-95
2023/03/25 04:19:28;;;;;;;9.15;4.60;;;;;;;7.56;68.79;98834.88;6110815;23;20009;-94
2023/03/25 04:21:53;;;;;;;9.02;5.45;;;;;;;7.42;68.96;98818.47;6111070;23;19993;-94
2023/03/25 04:24:18;;;;;;;8.48;5.63;;;;;;;7.38;68.88;98812.84;6109659;23;20437;-94
2023/03/25 04:26:45;;;;;;;8.27;4.82;;;;;;;7.45;69.27;98821.44;6110643;23;20001;-94
2023/03/25 04:29:12;;;;;;;9.98;5.75;;;;;;;7.45;68.83;98828.66;6112548;23;20001;-94
2023/03/25 04:31:45;;;;;;;7.65;5.18;;;;;;;7.49;69.25;98829.75;6112025;23;20017;-94
2023/03/25 04:34:13;;;;;;;9.50;5.18;;;;;;;7.51;68.77;98832.19;6111584;23;20017;-94
2023/03/25 04:36:41;;;;;;;8.75;5.40;;;;;;;7.53;69.12;98827.34;6112363;23;20004;-92
2023/03/25 04:39:16;;;;;;;10.13;5.72;;;;;;;7.71;67.69;98840.28;6113587;23;20009;-94
2023/03/25 04:41:42;;;;;;;9.80;5.38;;;;;;;7.66;68.26;98826.91;6114278;23;20352;-94
2023/03/25 04:44:08;;;;;;;9.05;5.25;;;;;;;7.73;68.12;98826.66;6112495;23;20037;-95
2023/03/25 04:46:35;;;;;;;8.38;5.22;;;;;;;7.60;68.63;98831.41;6134517;23;19997;-94
2023/03/25 04:49:04;;;;;;;12.02;5.40;;;;;;;7.60;68.64;98836.78;6110961;23;20080;-93
2023/03/25 04:51:31;;;;;;;13.35;5.10;;;;;;;7.57;68.42;98831.94;6112089;23;20005;-93
2023/03/25 04:53:57;;;;;;;8.70;5.50;;;;;;;7.60;68.30;98836.78;6111629;23;20060;-94
2023/03/25 04:56:22;;;;;;;9.32;4.93;;;;;;;7.69;68.42;98834.38;6111488;23;19989;-94
2023/03/25 04:58:48;;;;;;;14.63;5.50;;;;;;;7.68;68.38;98833.59;6110904;23;20005;-94
2023/03/25 05:01:29;;;;;;;10.13;5.85;;;;;;;7.65;68.57;98835.97;6111501;23;20009;-95
2023/03/25 05:04:03;;;;;;;9.60;5.70;;;;;;;7.61;68.61;98824.19;6112778;23;20060;-95
2023/03/25 05:06:29;;;;;;;12.13;5.53;;;;;;;7.64;68.40;98835.19;6137599;23;20008;-95
2023/03/25 05:08:54;;;;;;;10.13;5.53;;;;;;;7.67;68.59;98840.00;6111629;23;20001;-94
2023/03/25 05:11:20;;;;;;;7.82;5.18;;;;;;;7.75;68.26;98835.22;6111910;23;20005;-95
2023/03/25 05:13:45;;;;;;;9.50;6.15;;;;;;;7.81;67.79;98845.69;6110258;23;20001;-95
2023/03/25 05:16:10;;;;;;;10.25;6.00;;;;;;;7.83;67.85;98840.06;6111165;23;20425;-95
2023/03/25 05:18:36;;;;;;;13.73;5.07;;;;;;;7.77;68.02;98835.75;6111239;23;20005;-95
2023/03/25 05:21:01;;;;;;;10.68;5.30;;;;;;;7.83;68.08;98837.41;6110770;23;20002;-94
2023/03/25 05:23:27;;;;;;;9.10;5.25;;;;;;;7.99;67.43;98849.78;6111124;23;19998;-94
2023/03/25 05:25:53;;;;;;;11.23;6.72;;;;;;;7.94;67.81;98847.06;6111542;23;20008;-94
2023/03/25 05:28:18;;;;;;;7.32;5.47;;;;;;;8.03;68.05;98842.00;6110847;23;20001;-95
2023/03/25 05:30:45;;;;;;;14.27;6.30;;;;;;;7.99;67.97;98828.31;6137738;23;19998;-95
2023/03/25 05:33:12;;;;;;;12.40;6.07;;;;;;;8.06;66.83;98836.09;6110642;23;20088;-94
2023/03/25 05:35:38;;;;;;;13.98;6.40;;;;;;;8.08;67.07;98828.59;6110484;23;20041;-92
2023/03/25 05:38:04;;;;;;;10.98;6.57;;;;;;;8.22;66.77;98835.06;6109364;23;20001;-93
2023/03/25 05:40:30;;;;;;;16.25;6.03;;;;;;;8.38;66.67;98840.44;6109680;23;20005;-93
2023/03/25 05:42:55;;;;;;;10.55;6.65;;;;;;;8.47;66.56;98847.72;6109449;23;20064;-93
2023/03/25 05:45:21;;;;;;;12.15;6.10;;;;;;;8.57;66.39;98843.44;6109810;23;20004;-92
2023/03/25 05:47:47;;;;;;;15.05;6.70;;;;;;;8.68;66.00;98837.81;6110483;23;20455;-94
2023/03/25 05:50:15;;;;;;;13.55;6.60;;;;;;;8.72;65.48;98837.28;6110725;23;19997;-94
2023/03/25 05:52:41;;;;;;;9.48;6.22;;;;;;;8.86;65.67;98836.47;6111141;23;20012;-92
2023/03/25 05:55:10;;;;;;;11.48;6.90;;;;;;;8.97;64.98;98831.88;6110096;23;20025;-92
2023/03/25 05:57:35;;;;;;;12.60;6.40;;;;;;;8.96;64.87;98818.72;6109832;23;20080;-93
2023/03/25 06:00:03;;;;;;;16.00;7.00;;;;;;;9.29;64.15;98836.88;6109700;23;19997;-93
2023/03/25 06:02:29;;;;;;;16.25;7.07;;;;;;;9.37;63.97;98832.84;6111276;23;20048;-93
2023/03/25 06:04:57;;;;;;;11.70;6.50;;;;;;;9.63;63.23;98848.88;6110663;23;20084;-93
2023/03/25 06:07:24;;;;;;;14.85;5.93;;;;;;;9.61;63.33;98830.34;6135342;23;20009;-94
2023/03/25 06:09:53;;;;;;;12.70;6.85;;;;;;;9.83;63.12;98838.03;6110248;23;20029;-93
2023/03/25 06:12:19;;;;;;;15.45;6.35;;;;;;;9.99;62.15;98830.69;6111079;23;20025;-93
2023/03/25 06:14:52;;;;;;;8.48;5.78;;;;;;;10.17;62.02;98836.50;6133528;23;20001;-92
2023/03/25 06:17:18;;;;;;;14.77;6.53;;;;;;;10.34;61.78;98836.16;6111283;23;20001;-93
2023/03/25 06:19:43;;;;;;;11.70;6.30;;;;;;;10.49;60.90;98836.03;6110383;23;20417;-93
2023/03/25 06:22:09;;;;;;;13.52;6.40;;;;;;;10.55;60.61;98826.06;6110984;23;20487;-93
2023/03/25 06:24:38;;;;;;;12.93;6.78;;;;;;;10.72;60.15;98816.44;6110872;23;20010;-93
2023/03/25 06:27:05;;;;;;;9.68;5.60;;;;;;;10.96;59.88;98839.97;6111991;23;20347;-93
2023/03/25 06:29:33;;;;;;;11.13;5.20;;;;;;;11.10;58.98;98840.06;6111210;23;20344;-93
2023/03/25 06:31:58;;;;;;;17.02;6.55;;;;;;;11.30;58.73;98852.53;6110143;23;20068;-92
2023/03/25 06:34:23;;;;;;;8.13;5.03;;;;;;;11.47;57.53;98849.41;6110558;23;20017;-94
2023/03/25 06:36:49;;;;;;;9.05;4.80;;;;;;;11.58;57.01;98839.28;6109785;23;20002;-94
2023/03/25 06:39:15;;;;;;;16.58;5.80;;;;;;;11.70;56.42;98847.78;6110190;23;20006;-95
2023/03/25 06:41:41;;;;;;;9.77;4.97;;;;;;;11.91;55.49;98851.88;6110160;23;20085;-93
2023/03/25 06:44:07;;;;;;;8.10;5.25;;;;;;;12.04;54.90;98844.94;6110047;23;20006;-93
2023/03/25 06:46:32;;;;;;;6.68;4.47;;;;;;;12.13;54.68;98843.19;6110508;23;20032;-92
2023/03/25 06:48:58;;;;;;;9.45;5.07;;;;;;;12.24;54.73;98843.88;6109365;23;20001;-94
2023/03/25 06:51:23;;;;;;;16.13;11.93;;;;;;;12.43;54.66;98840.31;6110872;23;19997;-93
2023/03/25 06:53:49;;;;;;;15.00;5.70;;;;;;;12.52;54.13;98847.47;6112513;23;20016;-93
2023/03/25 06:56:14;;;;;;;6.45;4.38;;;;;;;12.59;53.83;98839.00;6115608;23;19997;-95
2023/03/25 06:58:40;;;;;;;7.78;4.63;;;;;;;12.82;53.49;98849.97;6116365;23;20001;-93
2023/03/25 07:01:06;;;;;;;10.82;4.80;;;;;;;12.92;53.29;98849.78;6111816;23;20006;-92
2023/03/25 07:03:32;;;;;;;10.85;5.13;;;;;;;13.13;53.38;98852.94;6111385;23;20071;-94
2023/03/25 07:05:58;;;;;;;9.25;4.63;;;;;;;13.25;51.92;98847.06;6116164;23;20005;-93
2023/03/25 07:08:23;;;;;;;8.23;4.13;;;;;;;13.40;50.43;98844.06;6112644;23;20008;-94
2023/03/25 07:10:49;;;;;;;6.10;4.20;;;;;;;13.61;49.80;98851.78;6113074;23;20009;-94
2023/03/25 07:13:15;;;;;;;11.45;4.15;;;;;;;13.72;49.58;98840.47;6111765;23;19996;-93
2023/03/25 07:15:40;;;;;;;6.72;4.20;;;;;;;13.89;48.90;98850.69;6112471;23;20001;-94
2023/03/25 07:18:06;;;;;;;8.07;4.15;;;;;;;13.94;48.55;98837.03;6113402;23;20080;-95
2023/03/25 07:20:32;;;;;;;6.63;3.40;;;;;;;14.04;48.36;98832.50;6112673;23;20005;-93
2023/03/25 07:22:57;;;;;;;8.52;3.83;;;;;;;14.24;47.82;98820.44;6115412;23;19993;-94
2023/03/25 07:25:23;;;;;;;14.90;4.18;;;;;;;14.34;47.66;98829.09;6112363;23;20014;-93
2023/03/25 07:27:48;;;;;;;10.98;3.95;;;;;;;14.51;47.14;98843.91;6112475;23;20024;-95
2023/03/25 07:30:22;;;;;;;6.93;3.72;;;;;;;14.49;46.43;98816.31;6113509;23;19997;-93
2023/03/25 07:32:47;;;;;;;5.97;3.83;;;;;;;14.74;46.26;98837.38;6115208;23;20013;-94
2023/03/25 07:35:13;;;;;;;6.65;3.53;;;;;;;14.84;46.18;98816.56;6114117;23;20451;-93
2023/03/25 07:37:38;;;;;;;6.55;3.63;;;;;;;15.09;45.28;98834.09;6112558;23;20005;-93
2023/03/25 07:40:05;;;;;;;10.35;4.90;;;;;;;15.27;45.35;98841.19;6113587;23;20002;-94
2023/03/25 07:42:31;;;;;;;8.63;3.63;;;;;;;15.33;44.05;98818.22;6114319;23;19998;-94
2023/03/25 07:44:56;;;;;;;13.68;4.35;;;;;;;15.54;43.92;98823.06;6119397;23;20040;-94
2023/03/25 07:47:22;;;;;;;9.25;3.47;;;;;;;15.67;44.08;98826.81;6113612;23;20001;-94
2023/03/25 07:49:48;;;;;;;20.35;10.00;;;;;;;15.72;43.19;98802.25;6113613;23;19998;-95
2023/03/25 07:52:14;;;;;;;8.07;4.15;;;;;;;16.05;42.59;98823.53;6113233;23;20005;-95
2023/03/25 07:54:40;;;;;;;7.00;3.45;;;;;;;16.19;41.76;98821.47;6112453;23;20436;-96
2023/03/25 07:57:05;;;;;;;7.65;3.65;;;;;;;16.31;41.49;98818.91;6112573;23;20001;-96
2023/03/25 07:59:31;;;;;;;8.88;3.65;;;;;;;16.55;41.02;98829.28;6114651;23;20012;-96
2023/03/25 08:01:56;;;;;;;5.05;3.25;;;;;;;16.81;40.79;98835.81;6112436;23;20020;-96
2023/03/25 08:04:22;;;;;;;4.90;3.60;;;;;;;16.94;40.27;98830.22;6112655;23;20012;-95
2023/03/25 08:06:47;;;;;;;8.10;3.58;;;;;;;17.13;40.68;98838.00;6113988;23;20017;-94
2023/03/25 08:09:13;;;;;;;8.23;4.43;;;;;;;17.25;39.69;98829.16;6112770;23;20009;-95
2023/03/25 08:11:39;;;;;;;6.22;3.70;;;;;;;17.40;39.03;98825.09;6088029;23;20016;-96
2023/03/25 08:14:04;;;;;;;6.72;3.70;;;;;;;17.58;38.77;98828.53;6113154;23;20001;-93
2023/03/25 08:16:30;;;;;;;5.30;3.53;;;;;;;17.55;38.29;98796.50;6114501;23;19997;-96
2023/03/25 08:19:05;;;;;;;5.22;3.70;;;;;;;17.67;37.96;98793.88;6125543;23;20005;-96
2023/03/25 08:21:44;;;;;;;11.02;4.13;;;;;;;17.80;37.57;98797.47;6128501;23;20002;-96
2023/03/25 08:24:10;;;;;;;4.68;3.50;;;;;;;17.98;37.12;98812.59;6122164;23;20428;-95
2023/03/25 08:26:36;;;;;;;4.30;2.75;;;;;;;18.06;36.55;98819.13;6113382;23;20005;-95
2023/03/25 08:29:02;;;;;;;4.63;2.80;;;;;;;18.21;35.85;98836.00;6111722;23;20032;-96
2023/03/25 08:31:29;;;;;;;4.03;2.60;;;;;;;18.23;34.99;98828.31;6112166;23;20009;-94
2023/03/25 08:33:56;;;;;;;3.33;2.10;;;;;;;18.31;34.72;98822.78;6129761;23;20132;-94
2023/03/25 08:36:22;;;;;;;3.78;2.40;;;;;;;18.31;34.75;98806.41;6135466;23;20420;-95
2023/03/25 08:38:50;;;;;;;3.00;2.22;;;;;;;18.44;34.97;98815.44;6112132;23;20184;-95
2023/03/25 08:41:15;;;;;;;5.00;2.40;;;;;;;18.45;35.77;98800.69;6111173;23;20002;-94
2023/03/25 08:43:41;;;;;;;4.65;2.60;;;;;;;18.53;35.65;98810.72;6110209;23;20448;-94
2023/03/25 08:46:07;;;;;;;4.25;2.60;;;;;;;18.67;35.11;98824.06;6115361;23;20115;-95
2023/03/25 08:48:33;;;;;;;3.08;2.53;;;;;;;18.69;35.21;98801.91;6112114;23;20456;-94
2023/03/25 08:50:59;;;;;;;5.15;2.20;;;;;;;18.72;35.45;98793.06;6110398;23;20021;-93
2023/03/25 08:53:26;;;;;;;4.50;2.55;;;;;;;18.85;35.54;98804.81;6159877;23;20084;-95
2023/03/25 08:55:57;;;;;;;3.10;2.30;;;;;;;18.78;36.03;98786.25;6114646;23;20009;-94
2023/03/25 08:58:24;;;;;;;4.72;2.50;;;;;;;18.79;35.35;98774.22;6137313;23;20005;-95
2023/03/25 09:00:53;;;;;;;3.50;2.30;;;;;;;19.03;35.34;98791.78;6158761;23;19990;-95
2023/03/25 09:03:23;;;;;;;4.05;2.58;;;;;;;18.97;35.73;98775.63;6111775;23;20012;-94
2023/03/25 09:05:54;;;;;;;3.38;2.50;;;;;;;19.08;35.49;98777.94;6134338;23;20005;-95
2023/03/25 09:08:31;;;;;;;3.23;2.60;;;;;;;19.14;35.75;98785.53;6134081;23;20001;-93
2023/03/25 09:10:58;;;;;;;4.00;2.30;;;;;;;19.39;35.02;98791.81;6159147;23;20012;-93
2023/03/25 09:13:27;;;;;;;6.28;2.60;;;;;;;19.50;34.65;98783.94;6135910;23;20029;-96
2023/03/25 09:15:53;;;;;;;4.18;2.40;;;;;;;19.42;34.42;98762.22;6133755;23;20009;-96
2023/03/25 09:18:20;;;;;;;4.50;2.35;;;;;;;19.65;34.46;98778.94;6112474;23;20084;-95
2023/03/25 09:20:47;;;;;;;3.75;2.53;;;;;;;19.50;34.58;98756.63;6111666;23;20021;-96
2023/03/25 09:23:16;;;;;;;6.15;2.65;;;;;;;19.62;35.27;98768.69;6112239;23;20351;-94
2023/03/25 09:25:43;;;;;;;4.68;2.75;;;;;;;19.65;34.57;98768.81;6160057;23;20021;-95
2023/03/25 09:28:10;;;;;;;3.67;2.60;;;;;;;19.68;33.56;98770.06;6156638;23;20013;-95
2023/03/25 09:30:38;;;;;;;3.95;2.78;;;;;;;19.77;34.12;98777.00;6135281;23;20483;-96
2023/03/25 09:33:05;;;;;;;3.45;2.53;;;;;;;19.71;33.78;98753.00;6129333;23;20073;-95
2023/03/25 09:35:35;;;;;;;2.40;1.90;;;;;;;19.88;33.85;98765.59;6106474;23;20014;-94
2023/03/25 09:38:07;;;;;;;4.80;2.38;;;;;;;19.96;33.16;98761.94;6130868;23;20475;-96
2023/03/25 09:40:45;;;;;;;2.70;2.22;;;;;;;20.10;32.03;98756.09;6133426;23;20013;-95
2023/03/25 09:43:34;;;;;;;3.35;2.25;;;;;;;20.24;32.31;98770.16;6133664;23;20005;-95
2023/03/25 09:46:06;;;;;;;3.00;2.35;;;;;;;20.17;31.84;98734.41;6136460;23;20008;-95
2023/03/25 09:48:41;;;;;;;4.88;2.45;;;;;;;20.37;32.00;98757.22;6109518;23;20002;-94
2023/03/25 09:51:25;;;;;;;6.50;2.97;;;;;;;20.28;33.01;98735.53;6129075;23;20006;-92
2023/03/25 09:54:13;;;;;;;3.10;2.22;;;;;;;20.48;32.49;98752.06;6131113;23;20033;-96
2023/03/25 09:56:46;;;;;;;3.78;2.53;;;;;;;20.42;31.17;98742.50;6136790;23;20417;-94
2023/03/25 09:59:20;;;;;;;3.33;2.30;;;;;;;20.39;30.55;98736.59;6133660;23;20025;-94
2023/03/25 10:02:14;;;;;;;4.35;2.92;;;;;;;20.46;31.42;98736.00;6081346;23;20001;-93
2023/03/25 10:04:52;;;;;;;4.65;2.90;;;;;;;20.61;32.39;98748.16;6129198;23;20042;-94
2023/03/25 10:08:10;;;;;;;3.78;2.70;;;;;;;20.73;31.07;98756.28;6130500;23;20012;-94
2023/03/25 10:11:20;;;;;;;4.18;2.60;;;;;;;20.67;30.99;98749.47;6104656;23;20002;-95
2023/03/25 10:13:54;;;;;;;3.78;2.28;;;;;;;20.85;30.76;98751.88;6050254;23;20070;-95
2023/03/25 10:16:41;;;;;;;3.90;2.60;;;;;;;21.02;30.86;98756.19;6054569;23;20010;-94
2023/03/25 10:19:25;;;;;;;3.67;2.60;;;;;;;21.01;29.80;98747.19;6103541;23;20003;-95
2023/03/25 10:21:57;;;;;;;3.53;2.38;;;;;;;20.88;29.56;98723.81;6102908;23;20009;-96
2023/03/25 10:24:49;;;;;;;6.05;2.50;;;;;;;20.91;30.71;98710.19;6080113;23;20006;-94
2023/03/25 10:27:34;;;;;;;3.80;2.58;;;;;;;21.13;30.71;98738.09;6079805;23;20006;-95
2023/03/25 10:30:08;;;;;;;4.97;2.80;;;;;;;21.33;30.93;98722.53;6106623;23;19982;-95
2023/03/25 10:32:40;;;;;;;3.80;2.20;;;;;;;21.53;30.19;98720.66;6058788;23;20018;-95
2023/03/25 10:35:10;;;;;;;6.18;3.45;;;;;;;21.81;30.38;98717.75;6086675;23;20018;-96
2023/03/25 10:37:38;;;;;;;5.68;2.60;;;;;;;21.84;31.10;98699.78;6081224;23;20038;-95
2023/03/25 10:40:38;;;;;;;3.97;2.72;;;;;;;22.09;30.25;98714.00;6080313;23;20002;-96
2023/03/25 10:43:16;;;;;;;3.70;2.45;;;;;;;22.01;30.90;98685.63;6174371;23;20013;-96
2023/03/25 10:46:12;;;;;;;4.72;2.40;;;;;;;22.32;30.55;98711.34;6149782;23;19994;-96
2023/03/25 10:48:41;;;;;;;4.95;2.92;;;;;;;22.23;30.05;98688.81;6170858;23;20040;-96
2023/03/25 10:51:44;;;;;;;4.85;2.80;;;;;;;22.16;30.53;98673.81;6121123;23;20070;-96
2023/03/25 10:54:13;;;;;;;3.58;2.30;;;;;;;22.02;29.67;98686.44;6130130;23;20029;-96
2023/03/25 10:56:46;;;;;;;4.10;2.20;;;;;;;22.09;29.82;98690.09;6148817;23;19986;-96
2023/03/25 10:59:36;;;;;;;5.28;2.60;;;;;;;22.34;30.23;98700.78;6101936;23;20013;-96
2023/03/25 11:02:25;;;;;;;5.20;2.90;;;;;;;22.34;29.86;98690.59;6120297;23;20029;-96
2023/03/25 11:04:56;;;;;;;4.35;2.65;;;;;;;22.19;29.65;98689.53;6119765;23;20009;-96
2023/03/25 11:07:42;;;;;;;4.15;2.65;;;;;;;22.22;29.89;98701.69;6117326;23;20017;-96
2023/03/25 11:10:08;;;;;;;4.07;2.70;;;;;;;22.15;30.14;98701.59;6144971;23;20001;-96
2023/03/25 11:12:45;;;;;;;5.10;2.88;;;;;;;21.89;32.40;98683.81;6145219;23;20010;-96
2023/03/25 11:15:17;;;;;;;4.22;2.47;;;;;;;21.64;32.71;98661.41;6123069;23;20021;-96
2023/03/25 11:17:44;;;;;;;3.78;2.85;;;;;;;21.78;33.02;98693.78;6120748;23;20334;-95
2023/03/25 11:20:17;;;;;;;3.42;2.78;;;;;;;21.56;32.66;98668.69;6118179;23;20041;-96
2023/03/25 11:22:49;;;;;;;3.42;2.35;;;;;;;21.64;33.05;98677.84;6121790;23;20068;-96
2023/03/25 11:25:20;;;;;;;4.03;2.83;;;;;;;21.49;33.18;98671.28;6149214;23;20006;-96
2023/03/25 11:28:20;;;;;;;5.20;3.10;;;;;;;21.42;32.67;98657.44;6101120;23;20005;-96
2023/03/25 11:31:11;;;;;;;4.65;3.00;;;;;;;21.58;33.60;98668.31;6146733;23;20002;-95
2023/03/25 11:33:37;;;;;;;3.30;2.80;;;;;;;21.34;33.33;98644.69;6146882;23;20014;-96
2023/03/25 11:36:33;;;;;;;4.25;3.20;;;;;;;21.22;32.91;98633.88;6120747;23;20002;-96
2023/03/25 11:39:03;;;;;;;4.88;2.75;;;;;;;21.42;33.93;98673.88;6125270;23;20101;-96
2023/03/25 11:41:39;;;;;;;4.05;2.60;;;;;;;21.16;34.20;98628.66;6097572;23;20009;-95
2023/03/25 11:44:33;;;;;;;4.90;3.00;;;;;;;21.37;34.34;98642.06;6125106;23;19998;-94
2023/03/25 11:47:06;;;;;;;5.00;2.90;;;;;;;21.31;34.10;98639.94;6126508;23;20002;-95
2023/03/25 11:49:46;;;;;;;6.13;2.90;;;;;;;21.31;34.88;98639.94;6122977;23;20001;-96
2023/03/25 11:52:22;;;;;;;3.60;2.90;;;;;;;21.29;32.96;98629.34;6148919;23;20005;-96